createdAt,value
2023-06-28T00:06:29.574Z,99807.30
2023-06-28T00:16:04.241Z,99803.50
2023-06-28T00:25:38.986Z,99803.63
2023-06-28T00:35:13.464Z,99806.28
2023-06-28T00:44:49.667Z,99809.55
2023-06-28T00:54:22.049Z,99812.17
2023-06-28T01:03:56.726Z,99809.21
2023-06-28T01:13:32.885Z,99807.98
2023-06-28T01:23:05.498Z,99814.63
2023-06-28T01:32:41.380Z,99812.39
2023-06-28T01:42:15.999Z,99814.67
2023-06-28T01:51:48.343Z,99808.13
2023-06-28T02:01:23.167Z,99815.92
2023-06-28T02:10:57.795Z,99817.50
2023-06-28T02:20:32.223Z,99814.44
2023-06-28T02:30:05.504Z,99819.47
2023-06-28T02:39:41.807Z,99815.23
2023-06-28T02:49:16.575Z,99821.28
2023-06-28T02:58:48.943Z,99817.69
2023-06-28T03:08:23.412Z,99827.55
2023-06-28T03:17:59.469Z,99827.79
2023-06-28T03:27:33.778Z,99825.23
2023-06-28T03:37:06.152Z,99828.89
2023-06-28T03:46:42.095Z,99824.67
2023-06-28T03:47:44.407Z,99831.01
2023-06-28T03:57:19.405Z,99830.23
2023-06-28T04:06:53.841Z,99835.72
2023-06-28T04:16:27.120Z,99836.14
2023-06-28T04:26:03.388Z,99830.81
2023-06-28T04:35:36.269Z,99845.20
2023-06-28T04:45:10.488Z,99846.30
2023-06-28T04:54:44.927Z,99839.02
2023-06-28T05:04:19.379Z,99843.38
2023-06-28T05:13:53.567Z,99844.92
2023-06-28T05:23:27.989Z,99851.68
2023-06-28T05:33:04.266Z,99853.73
2023-06-28T05:42:36.886Z,99854.38
2023-06-28T05:52:11.498Z,99856.33
2023-06-28T06:01:48.230Z,99853.75
2023-06-28T06:11:21.328Z,99852.05
2023-06-28T06:12:25.083Z,99849.27
2023-06-28T06:13:31.262Z,99852.58
2023-06-28T06:14:33.564Z,99849.53
2023-06-28T06:15:35.985Z,99852.68
2023-06-28T06:16:38.405Z,99848.66
2023-06-28T06:17:44.731Z,99853.44
2023-06-28T06:18:50.655Z,99851.02
2023-06-28T06:19:52.869Z,99854.72
2023-06-28T06:20:55.370Z,99847.06
2023-06-28T06:21:57.822Z,99847.97
2023-06-28T06:23:00.315Z,99849.72
2023-06-28T06:24:02.764Z,99845.22
2023-06-28T06:25:05.285Z,99845.91
2023-06-28T06:34:37.651Z,99849.71
2023-06-28T06:35:40.184Z,99850.94
2023-06-28T06:45:13.821Z,99858.72
2023-06-28T06:46:17.311Z,99862.84
2023-06-28T06:47:21.279Z,99865.38
2023-06-28T06:48:23.603Z,99863.98
2023-06-28T06:49:27.701Z,99869.82
2023-06-28T06:50:30.078Z,99868.84
2023-06-28T06:51:32.764Z,99870.08
2023-06-28T06:52:35.278Z,99869.75
2023-06-28T06:53:37.736Z,99872.98
2023-06-28T06:54:41.755Z,99870.08
2023-06-28T06:55:44.217Z,99873.25
2023-06-28T06:56:48.488Z,99870.55
2023-06-28T06:57:50.861Z,99867.55
2023-06-28T06:58:53.339Z,99872.81
2023-06-28T06:59:55.791Z,99872.38
2023-06-28T07:00:58.295Z,99872.22
2023-06-28T07:02:00.836Z,99872.11
2023-06-28T07:03:07.049Z,99868.69
2023-06-28T07:04:09.264Z,99870.23
2023-06-28T07:05:11.750Z,99869.91
2023-06-28T07:06:14.246Z,99868.43
2023-06-28T07:07:16.709Z,99867.87
2023-06-28T07:08:19.162Z,99873.02
2023-06-28T07:09:23.278Z,99878.13
2023-06-28T07:10:25.886Z,99874.53
2023-06-28T07:11:28.333Z,99873.88
2023-06-28T07:12:30.778Z,99870.78
2023-06-28T07:13:33.213Z,99874.98
2023-06-28T07:14:35.733Z,99876.69
2023-06-28T07:15:38.173Z,99874.74
2023-06-28T07:16:40.712Z,99878.08
2023-06-28T07:17:44.859Z,99873.25
2023-06-28T07:18:47.337Z,99870.52
2023-06-28T07:19:51.270Z,99871.21
2023-06-28T07:20:53.645Z,99868.09
2023-06-28T07:21:57.669Z,99869.36
2023-06-28T07:23:00.013Z,99875.38
2023-06-28T07:24:02.482Z,99865.98
2023-06-28T07:25:06.573Z,99870.64
2023-06-28T07:26:08.856Z,99870.84
2023-06-28T07:27:11.412Z,99869.32
2023-06-28T07:28:15.500Z,99869.88
2023-06-28T07:29:19.421Z,99870.22
2023-06-28T07:30:21.798Z,99865.25
2023-06-28T07:31:24.219Z,99867.81
2023-06-28T07:32:26.749Z,99868.25
2023-06-28T07:33:29.116Z,99872.09
2023-06-28T07:34:31.577Z,99868.30
2023-06-28T07:35:34.093Z,99872.59
2023-06-28T07:36:36.595Z,99871.81
2023-06-28T07:37:39.117Z,99866.89
2023-06-28T07:38:41.518Z,99866.95
2023-06-28T07:39:45.597Z,99867.42
2023-06-28T07:40:47.969Z,99867.37
2023-06-28T07:41:52.028Z,99863.45
2023-06-28T07:42:54.379Z,99865.69
2023-06-28T07:43:56.835Z,99861.83
2023-06-28T07:44:59.391Z,99862.41
2023-06-28T07:46:01.888Z,99860.95
2023-06-28T07:47:05.991Z,99861.33
2023-06-28T07:48:08.398Z,99861.28
2023-06-28T07:49:10.810Z,99861.80
2023-06-28T07:50:13.525Z,99866.79
2023-06-28T07:51:17.336Z,99867.05
2023-06-28T07:52:21.556Z,99871.41
2023-06-28T07:53:23.859Z,99865.48
2023-06-28T07:54:33.542Z,99870.03
2023-06-28T07:55:28.808Z,99870.64
2023-06-28T07:56:32.937Z,99868.73
2023-06-28T07:57:35.261Z,99868.42
2023-06-28T07:58:37.711Z,99870.84
2023-06-28T07:59:40.232Z,99869.97
2023-06-28T08:00:43.182Z,99870.77
2023-06-28T08:01:45.431Z,99871.14
2023-06-28T08:02:47.932Z,99865.88
2023-06-28T08:03:50.391Z,99866.03
2023-06-28T08:04:52.921Z,99866.86
2023-06-28T08:05:59.196Z,99869.92
2023-06-28T08:07:02.997Z,99870.57
2023-06-28T08:08:05.304Z,99867.78
2023-06-28T08:09:07.793Z,99862.11
2023-06-28T08:10:10.315Z,99860.94
2023-06-28T08:11:12.854Z,99858.88
2023-06-28T08:12:15.219Z,99856.22
2023-06-28T08:13:17.732Z,99858.94
2023-06-28T08:14:20.160Z,99857.50
2023-06-28T08:15:24.236Z,99860.02
2023-06-28T08:16:27.606Z,99860.58
2023-06-28T08:17:30.062Z,99860.83
2023-06-28T08:18:32.591Z,99863.53
2023-06-28T08:19:34.994Z,99861.80
2023-06-28T08:20:40.650Z,99864.36
2023-06-28T08:21:41.534Z,99863.50
2023-06-28T08:22:44.175Z,99859.83
2023-06-28T08:23:46.750Z,99858.39
2023-06-28T08:24:49.211Z,99858.64
2023-06-28T08:25:51.723Z,99856.93
2023-06-28T08:26:54.206Z,99858.70
2023-06-28T08:27:56.727Z,99858.66
2023-06-28T08:29:00.758Z,99861.36
2023-06-28T08:30:01.795Z,99861.22
2023-06-28T08:31:04.308Z,99863.70
2023-06-28T08:32:08.301Z,99864.81
2023-06-28T08:33:10.715Z,99865.38
2023-06-28T08:42:43.118Z,99864.44
2023-06-28T08:43:45.663Z,99868.02
2023-06-28T08:44:48.140Z,99863.91
2023-06-28T08:45:52.220Z,99866.34
2023-06-28T08:46:54.594Z,99859.94
2023-06-28T08:47:58.607Z,99862.77
2023-06-28T08:49:02.526Z,99863.89
2023-06-28T08:50:04.835Z,99866.97
2023-06-28T08:51:07.548Z,99864.33
2023-06-28T08:52:09.860Z,99862.97
2023-06-28T08:53:12.361Z,99857.14
2023-06-28T08:54:14.855Z,99854.32
2023-06-28T08:55:17.365Z,99853.97
2023-06-28T08:56:19.863Z,99855.45
2023-06-28T08:57:23.924Z,99853.86
2023-06-28T08:58:26.245Z,99849.70
2023-06-28T08:59:30.309Z,99850.89
2023-06-28T09:00:32.659Z,99846.17
2023-06-28T09:01:35.102Z,99851.25
2023-06-28T09:02:39.210Z,99852.39
2023-06-28T09:03:43.335Z,99850.23
2023-06-28T09:04:48.041Z,99851.63
2023-06-28T09:05:50.398Z,99847.30
2023-06-28T09:06:54.477Z,99848.79
2023-06-28T09:07:56.897Z,99845.22
2023-06-28T09:09:00.178Z,99847.36
2023-06-28T09:10:01.951Z,99848.17
2023-06-28T09:11:04.374Z,99849.67
2023-06-28T09:12:06.896Z,99849.48
2023-06-28T09:13:09.368Z,99846.56
2023-06-28T09:14:11.846Z,99848.23
2023-06-28T09:15:14.319Z,99848.64
2023-06-28T09:16:16.836Z,99849.06
2023-06-28T09:17:19.586Z,99850.48
2023-06-28T09:18:23.414Z,99846.42
2023-06-28T09:19:25.768Z,99848.80
2023-06-28T09:20:28.259Z,99847.36
2023-06-28T09:21:30.763Z,99851.27
2023-06-28T09:22:33.245Z,99852.06
2023-06-28T09:23:35.721Z,99851.70
2023-06-28T09:24:38.216Z,99851.89
2023-06-28T09:25:42.492Z,99851.61
2023-06-28T09:26:46.247Z,99849.56
2023-06-28T09:27:48.570Z,99850.00
2023-06-28T09:28:51.079Z,99847.38
2023-06-28T09:29:53.544Z,99854.72
2023-06-28T09:30:57.601Z,99855.45
2023-06-28T09:32:01.689Z,99857.67
2023-06-28T09:33:03.943Z,99856.34
2023-06-28T09:34:06.373Z,99851.95
2023-06-28T09:35:10.434Z,99849.49
2023-06-28T09:36:12.773Z,99850.79
2023-06-28T09:37:15.284Z,99853.16
2023-06-28T09:38:19.564Z,99848.53
2023-06-28T09:39:23.456Z,99851.95
2023-06-28T09:40:27.592Z,99852.95
2023-06-28T09:41:31.523Z,99852.09
2023-06-28T09:42:33.899Z,99852.54
2023-06-28T09:43:36.400Z,99856.70
2023-06-28T09:44:38.887Z,99851.34
2023-06-28T09:45:41.688Z,99850.22
2023-06-28T09:46:45.553Z,99847.44
2023-06-28T09:47:47.894Z,99850.94
2023-06-28T09:48:51.952Z,99848.95
2023-06-28T09:49:54.463Z,99853.83
2023-06-28T09:50:58.545Z,99846.55
2023-06-28T09:52:00.879Z,99852.09
2023-06-28T09:53:03.410Z,99850.14
2023-06-28T09:54:05.925Z,99851.14
2023-06-28T09:55:10.052Z,99851.67
2023-06-28T09:56:12.442Z,99849.44
2023-06-28T09:57:14.881Z,99851.59
2023-06-28T09:58:17.332Z,99850.63
2023-06-28T09:59:30.402Z,99852.31
2023-06-28T10:00:23.935Z,99853.91
2023-06-28T10:01:26.351Z,99857.91
2023-06-28T10:02:28.966Z,99861.91
2023-06-28T10:03:31.416Z,99859.88
2023-06-28T10:04:33.935Z,99861.09
2023-06-28T10:05:36.355Z,99868.13
2023-06-28T10:06:40.524Z,99860.16
2023-06-28T10:07:42.879Z,99863.66
2023-06-28T10:08:46.960Z,99863.61
2023-06-28T10:09:49.290Z,99860.35
2023-06-28T10:10:51.792Z,99863.65
2023-06-28T10:11:54.316Z,99864.83
2023-06-28T10:12:56.778Z,99862.90
2023-06-28T10:13:59.265Z,99864.01
2023-06-28T10:15:03.561Z,99864.01
2023-06-28T10:16:05.930Z,99861.88
2023-06-28T10:17:10.039Z,99866.08
2023-06-28T10:18:12.371Z,99860.52
2023-06-28T10:19:14.844Z,99857.94
2023-06-28T10:20:18.910Z,99854.92
2023-06-28T10:21:22.900Z,99856.09
2023-06-28T10:22:25.255Z,99859.14
2023-06-28T10:23:27.718Z,99855.52
2023-06-28T10:24:30.221Z,99853.16
2023-06-28T10:25:32.779Z,99860.59
2023-06-28T10:35:05.713Z,99853.06
2023-06-28T10:36:09.851Z,99857.57
2023-06-28T10:37:12.206Z,99861.52
2023-06-28T10:38:14.762Z,99856.50
2023-06-28T10:39:17.258Z,99853.80
2023-06-28T10:40:19.760Z,99859.05
2023-06-28T10:41:22.257Z,99853.08
2023-06-28T10:42:24.912Z,99856.83
2023-06-28T10:43:27.298Z,99863.91
2023-06-28T10:44:29.854Z,99862.97
2023-06-28T10:45:33.915Z,99858.63
2023-06-28T10:46:36.304Z,99856.91
2023-06-28T10:47:38.774Z,99857.75
2023-06-28T10:48:42.881Z,99859.06
2023-06-28T10:49:45.260Z,99858.06
2023-06-28T10:50:47.963Z,99858.48
2023-06-28T10:51:50.478Z,99852.56
2023-06-28T10:52:52.984Z,99848.05
2023-06-28T10:53:57.109Z,99852.48
2023-06-28T10:54:59.465Z,99850.19
2023-06-28T10:56:01.986Z,99850.54
2023-06-28T10:57:06.151Z,99847.48
2023-06-28T10:58:08.578Z,99846.27
2023-06-28T10:59:12.622Z,99847.42
2023-06-28T11:00:15.089Z,99846.00
2023-06-28T11:01:17.559Z,99841.13
2023-06-28T11:02:20.084Z,99836.47
2023-06-28T11:03:22.588Z,99833.34
2023-06-28T11:04:26.673Z,99832.47
2023-06-28T11:05:30.706Z,99831.64
2023-06-28T11:06:34.641Z,99829.82
2023-06-28T11:07:38.718Z,99834.05
2023-06-28T11:08:41.014Z,99829.63
2023-06-28T11:09:43.507Z,99832.67
2023-06-28T11:10:46.019Z,99834.00
2023-06-28T11:11:50.137Z,99831.09
2023-06-28T11:12:52.461Z,99830.73
2023-06-28T11:13:55.017Z,99827.64
2023-06-28T11:14:57.506Z,99834.59
2023-06-28T11:16:01.580Z,99839.04
2023-06-28T11:17:05.541Z,99837.10
2023-06-28T11:18:09.515Z,99835.50
2023-06-28T11:19:13.522Z,99844.13
2023-06-28T11:20:15.938Z,99841.11
2023-06-28T11:21:20.004Z,99847.88
2023-06-28T11:22:22.416Z,99843.84
2023-06-28T11:23:24.856Z,99841.94
2023-06-28T11:24:28.990Z,99846.30
2023-06-28T11:25:31.341Z,99847.59
2023-06-28T11:26:33.834Z,99842.45
2023-06-28T11:27:36.483Z,99847.14
2023-06-28T11:28:39.011Z,99838.76
2023-06-28T11:29:41.556Z,99840.73
2023-06-28T11:30:44.213Z,99842.00
2023-06-28T11:31:46.522Z,99842.77
2023-06-28T11:32:49.104Z,99841.30
2023-06-28T11:33:51.594Z,99837.34
2023-06-28T11:34:54.069Z,99842.44
2023-06-28T11:35:58.314Z,99837.70
2023-06-28T11:37:02.627Z,99837.97
2023-06-28T11:38:05.007Z,99834.30
2023-06-28T11:39:09.105Z,99836.15
2023-06-28T11:40:13.111Z,99833.30
2023-06-28T11:41:17.026Z,99831.33
2023-06-28T11:42:19.433Z,99833.27
2023-06-28T11:43:23.548Z,99831.14
2023-06-28T11:44:27.632Z,99828.14
2023-06-28T11:45:31.633Z,99824.45
2023-06-28T11:46:34.003Z,99830.52
2023-06-28T11:47:36.564Z,99823.64
2023-06-28T11:48:39.039Z,99821.40
2023-06-28T11:49:43.200Z,99821.30
2023-06-28T11:50:47.213Z,99821.11
2023-06-28T11:51:49.640Z,99820.09
2023-06-28T11:52:52.175Z,99823.48
2023-06-28T11:53:57.287Z,99817.27
2023-06-28T11:55:01.411Z,99822.25
2023-06-28T11:56:03.678Z,99815.43
2023-06-28T11:57:06.202Z,99820.52
2023-06-28T11:58:10.324Z,99834.33
2023-06-28T11:59:14.311Z,99832.88
2023-06-28T12:00:16.708Z,99831.64
2023-06-28T12:01:19.165Z,99831.67
2023-06-28T12:02:23.248Z,99825.93
2023-06-28T12:03:25.705Z,99826.52
2023-06-28T12:04:28.194Z,99822.98
2023-06-28T12:05:30.730Z,99827.13
2023-06-28T12:06:34.801Z,99822.71
2023-06-28T12:07:38.880Z,99822.69
2023-06-28T12:08:41.256Z,99823.12
2023-06-28T12:09:43.719Z,99818.97
2023-06-28T12:10:46.262Z,99820.45
2023-06-28T12:11:48.803Z,99816.80
2023-06-28T12:12:51.349Z,99816.22
2023-06-28T12:13:53.871Z,99820.78
2023-06-28T12:14:56.380Z,99821.38
2023-06-28T12:16:00.509Z,99817.73
2023-06-28T12:17:02.870Z,99823.30
2023-06-28T12:18:07.050Z,99818.48
2023-06-28T12:19:11.126Z,99818.13
2023-06-28T12:20:15.140Z,99818.26
2023-06-28T12:21:17.531Z,99821.59
2023-06-28T12:22:19.996Z,99816.81
2023-06-28T12:23:22.496Z,99820.16
2023-06-28T12:24:25.012Z,99819.28
2023-06-28T12:25:29.102Z,99821.33
2023-06-28T12:26:31.487Z,99815.49
2023-06-28T12:27:34.177Z,99817.56
2023-06-28T12:28:36.631Z,99817.97
2023-06-28T12:29:39.157Z,99811.02
2023-06-28T12:30:41.689Z,99820.52
2023-06-28T12:31:45.894Z,99823.22
2023-06-28T12:32:48.347Z,99816.17
2023-06-28T12:33:50.825Z,99817.28
2023-06-28T12:34:53.409Z,99814.72
2023-06-28T12:35:55.929Z,99813.64
2023-06-28T12:37:00.032Z,99816.83
2023-06-28T12:38:02.438Z,99822.22
2023-06-28T12:39:04.964Z,99820.89
2023-06-28T12:40:07.411Z,99816.58
2023-06-28T12:41:09.910Z,99814.59
2023-06-28T12:42:12.380Z,99814.07
2023-06-28T12:43:14.890Z,99812.58
2023-06-28T12:44:17.416Z,99811.17
2023-06-28T12:45:21.730Z,99813.31
2023-06-28T12:46:24.077Z,99812.45
2023-06-28T12:47:28.223Z,99810.52
2023-06-28T12:48:30.515Z,99806.16
2023-06-28T12:49:34.572Z,99804.74
2023-06-28T12:50:36.991Z,99808.18
2023-06-28T12:51:39.469Z,99800.80
2023-06-28T12:52:41.951Z,99803.88
2023-06-28T12:53:44.461Z,99804.81
2023-06-28T12:54:48.643Z,99808.44
2023-06-28T12:55:50.993Z,99810.23
2023-06-28T12:56:53.495Z,99813.44
2023-06-28T12:57:56.028Z,99808.38
2023-06-28T12:58:58.538Z,99809.31
2023-06-28T13:00:01.088Z,99806.81
2023-06-28T13:01:03.543Z,99806.24
2023-06-28T13:02:06.035Z,99803.23
2023-06-28T13:03:10.166Z,99800.39
2023-06-28T13:04:12.658Z,99800.45
2023-06-28T13:05:16.865Z,99802.63
2023-06-28T13:06:20.837Z,99800.39
2023-06-28T13:07:23.209Z,99800.56
2023-06-28T13:08:25.727Z,99798.83
2023-06-28T13:09:28.203Z,99791.33
2023-06-28T13:10:32.356Z,99792.61
2023-06-28T13:11:36.319Z,99790.55
2023-06-28T13:12:38.700Z,99786.36
2023-06-28T13:13:41.208Z,99788.66
2023-06-28T13:14:45.377Z,99789.27
2023-06-28T13:15:49.385Z,99784.94
2023-06-28T13:16:51.777Z,99786.06
2023-06-28T13:17:54.309Z,99787.62
2023-06-28T13:18:58.356Z,99787.36
2023-06-28T13:20:02.523Z,99782.93
2023-06-28T13:21:04.877Z,99783.70
2023-06-28T13:22:07.410Z,99786.42
2023-06-28T13:23:09.948Z,99786.80
2023-06-28T13:24:12.498Z,99778.48
2023-06-28T13:25:15.014Z,99785.08
2023-06-28T13:26:17.543Z,99786.09
2023-06-28T13:27:20.138Z,99776.06
2023-06-28T13:28:22.661Z,99781.91
2023-06-28T13:29:25.185Z,99782.88
2023-06-28T13:30:27.660Z,99776.70
2023-06-28T13:31:30.178Z,99773.69
2023-06-28T13:32:34.248Z,99774.75
2023-06-28T13:33:38.206Z,99770.67
2023-06-28T13:34:42.181Z,99767.45
2023-06-28T13:35:44.821Z,99764.77
2023-06-28T13:36:47.044Z,99765.95
2023-06-28T13:37:51.141Z,99767.47
2023-06-28T13:38:55.091Z,99762.34
2023-06-28T13:39:59.121Z,99764.90
2023-06-28T13:41:01.545Z,99762.92
2023-06-28T13:42:04.062Z,99765.78
2023-06-28T13:43:06.654Z,99762.41
2023-06-28T13:44:09.224Z,99760.70
2023-06-28T13:45:13.350Z,99757.75
2023-06-28T13:46:17.469Z,99763.91
2023-06-28T13:47:21.543Z,99763.06
2023-06-28T13:48:23.863Z,99759.49
2023-06-28T13:49:26.423Z,99754.15
2023-06-28T13:50:28.966Z,99758.79
2023-06-28T13:51:33.137Z,99764.43
2023-06-28T13:52:35.526Z,99760.84
2023-06-28T13:53:38.008Z,99758.20
2023-06-28T13:54:40.501Z,99758.97
2023-06-28T13:55:43.273Z,99758.92
2023-06-28T13:56:45.528Z,99761.58
2023-06-28T13:57:48.036Z,99759.70
2023-06-28T13:58:50.589Z,99755.00
2023-06-28T13:59:53.103Z,99759.40
2023-06-28T14:00:55.625Z,99760.07
2023-06-28T14:01:58.117Z,99755.48
2023-06-28T14:03:02.279Z,99759.13
2023-06-28T14:04:04.537Z,99758.67
2023-06-28T14:05:08.672Z,99757.94
2023-06-28T14:06:11.058Z,99760.39
2023-06-28T14:07:13.623Z,99759.44
2023-06-28T14:08:16.086Z,99757.00
2023-06-28T14:09:18.548Z,99756.56
2023-06-28T14:10:22.644Z,99758.27
2023-06-28T14:11:26.611Z,99756.30
2023-06-28T14:12:29.106Z,99758.59
2023-06-28T14:13:33.052Z,99756.04
2023-06-28T14:14:35.362Z,99753.14
2023-06-28T14:15:37.886Z,99757.95
2023-06-28T14:16:40.362Z,99757.83
2023-06-28T14:17:42.884Z,99753.36
2023-06-28T14:18:46.954Z,99756.74
2023-06-28T14:19:50.925Z,99759.84
2023-06-28T14:20:54.846Z,99756.17
2023-06-28T14:21:58.795Z,99758.26
2023-06-28T14:23:01.186Z,99758.08
2023-06-28T14:24:03.663Z,99755.05
2023-06-28T14:25:07.777Z,99754.66
2023-06-28T14:26:10.146Z,99752.58
2023-06-28T14:27:12.637Z,99755.72
2023-06-28T14:28:15.125Z,99748.30
2023-06-28T14:29:17.676Z,99747.00
2023-06-28T14:30:21.789Z,99748.59
2023-06-28T14:31:25.892Z,99747.74
2023-06-28T14:32:28.202Z,99747.31
2023-06-28T14:33:32.271Z,99739.84
2023-06-28T14:34:34.707Z,99742.35
2023-06-28T14:35:37.177Z,99737.97
2023-06-28T14:36:39.673Z,99738.92
2023-06-28T14:37:43.823Z,99737.77
2023-06-28T14:38:47.761Z,99735.22
2023-06-28T14:48:18.896Z,99736.51
2023-06-28T14:49:21.340Z,99736.77
2023-06-28T14:50:23.912Z,99735.53
2023-06-28T14:51:26.371Z,99734.14
2023-06-28T14:52:30.515Z,99734.52
2023-06-28T14:53:34.490Z,99729.44
2023-06-28T14:54:36.911Z,99730.52
2023-06-28T14:55:41.203Z,99730.97
2023-06-28T14:56:43.462Z,99733.36
2023-06-28T14:57:45.987Z,99732.58
2023-06-28T14:58:48.546Z,99733.61
2023-06-28T14:59:51.106Z,99724.91
2023-06-28T15:00:55.285Z,99727.45
2023-06-28T15:02:00.337Z,99726.60
2023-06-28T15:03:02.774Z,99725.20
2023-06-28T15:04:05.152Z,99722.80
2023-06-28T15:05:07.763Z,99725.29
2023-06-28T15:06:12.284Z,99729.31
2023-06-28T15:07:12.778Z,99728.70
2023-06-28T15:08:15.240Z,99730.27
2023-06-28T15:09:17.761Z,99724.90
2023-06-28T15:10:20.374Z,99727.21
2023-06-28T15:11:22.848Z,99727.23
2023-06-28T15:12:25.340Z,99725.66
2023-06-28T15:13:27.858Z,99728.53
2023-06-28T15:14:31.973Z,99729.40
2023-06-28T15:15:34.396Z,99724.06
2023-06-28T15:16:38.462Z,99725.29
2023-06-28T15:17:42.610Z,99718.91
2023-06-28T15:18:46.597Z,99722.97
2023-06-28T15:19:48.958Z,99722.49
2023-06-28T15:20:51.489Z,99719.31
2023-06-28T15:21:55.557Z,99722.77
2023-06-28T15:22:57.973Z,99719.86
2023-06-28T15:24:01.850Z,99714.70
2023-06-28T15:25:02.972Z,99713.02
2023-06-28T15:26:05.503Z,99717.84
2023-06-28T15:27:07.968Z,99717.66
2023-06-28T15:28:10.473Z,99717.84
2023-06-28T15:29:12.961Z,99718.90
2023-06-28T15:30:17.100Z,99725.08
2023-06-28T15:31:21.093Z,99726.41
2023-06-28T15:32:25.025Z,99724.23
2023-06-28T15:33:28.991Z,99725.29
2023-06-28T15:34:31.301Z,99726.47
2023-06-28T15:35:33.766Z,99720.64
2023-06-28T15:36:36.339Z,99719.89
2023-06-28T15:37:38.836Z,99715.61
2023-06-28T15:38:42.329Z,99716.77
2023-06-28T15:39:46.420Z,99713.58
2023-06-28T15:49:18.249Z,99711.83
2023-06-28T15:50:20.775Z,99712.27
2023-06-28T15:51:23.316Z,99710.37
2023-06-28T15:52:25.882Z,99708.98
2023-06-28T15:53:28.440Z,99709.59
2023-06-28T15:54:32.534Z,99705.92
2023-06-28T15:55:36.501Z,99701.35
2023-06-28T15:56:38.887Z,99705.38
2023-06-28T15:57:47.458Z,99703.16
2023-06-28T15:58:50.638Z,99703.36
2023-06-28T15:59:53.649Z,99705.97
2023-06-28T16:00:56.040Z,99706.78
2023-06-28T16:01:58.561Z,99704.50
2023-06-28T16:03:01.021Z,99701.46
2023-06-28T16:04:05.344Z,99700.53
2023-06-28T16:05:07.437Z,99692.55
2023-06-28T16:06:11.489Z,99691.91
2023-06-28T16:07:13.913Z,99691.09
2023-06-28T16:08:16.350Z,99691.89
2023-06-28T16:09:18.817Z,99689.84
2023-06-28T16:10:22.903Z,99689.69
2023-06-28T16:11:26.839Z,99690.11
2023-06-28T16:12:29.182Z,99689.91
2023-06-28T16:13:31.739Z,99685.88
2023-06-28T16:14:35.785Z,99689.49
2023-06-28T16:15:38.157Z,99688.45
2023-06-28T16:16:42.200Z,99690.69
2023-06-28T16:17:44.596Z,99692.75
2023-06-28T16:18:47.091Z,99688.39
2023-06-28T16:19:49.580Z,99687.55
2023-06-28T16:20:52.102Z,99686.75
2023-06-28T16:21:56.150Z,99685.80
2023-06-28T16:23:00.117Z,99687.52
2023-06-28T16:24:02.564Z,99688.13
2023-06-28T16:25:04.981Z,99684.34
2023-06-28T16:26:09.080Z,99683.30
2023-06-28T16:27:13.064Z,99682.80
2023-06-28T16:28:15.393Z,99684.89
2023-06-28T16:29:17.948Z,99682.92
2023-06-28T16:30:20.397Z,99682.69
2023-06-28T16:31:22.908Z,99678.28
2023-06-28T16:32:25.444Z,99683.02
2023-06-28T16:33:29.488Z,99686.03
2023-06-28T16:34:34.481Z,99688.13
2023-06-28T16:35:38.296Z,99684.84
2023-06-28T16:36:42.430Z,99685.02
2023-06-28T16:37:44.632Z,99686.66
2023-06-28T16:38:47.114Z,99685.66
2023-06-28T16:39:49.528Z,99686.92
2023-06-28T16:40:52.052Z,99688.75
2023-06-28T16:41:55.574Z,99689.28
2023-06-28T16:42:59.563Z,99687.13
2023-06-28T16:44:01.970Z,99682.67
2023-06-28T16:45:04.371Z,99685.36
2023-06-28T16:46:07.012Z,99682.52
2023-06-28T16:47:12.111Z,99682.02
2023-06-28T16:48:15.858Z,99682.43
2023-06-28T16:49:18.168Z,99681.86
2023-06-28T16:50:22.311Z,99677.39
2023-06-28T16:51:26.238Z,99681.08
2023-06-28T16:52:30.148Z,99682.30
2023-06-28T16:53:32.566Z,99681.44
2023-06-28T16:54:35.021Z,99679.39
2023-06-28T16:55:38.460Z,99682.99
2023-06-28T16:56:40.873Z,99680.86
2023-06-28T16:57:45.026Z,99681.88
2023-06-28T16:58:48.864Z,99682.38
2023-06-28T16:59:51.200Z,99685.63
2023-06-28T17:00:55.355Z,99686.41
2023-06-28T17:01:57.689Z,99683.82
2023-06-28T17:03:00.166Z,99688.30
2023-06-28T17:04:04.226Z,99683.91
2023-06-28T17:05:06.546Z,99690.69
2023-06-28T17:06:09.025Z,99689.17
2023-06-28T17:07:11.530Z,99692.09
2023-06-28T17:08:13.901Z,99691.48
2023-06-28T17:09:18.055Z,99688.40
2023-06-28T17:10:22.008Z,99688.55
2023-06-28T17:11:24.284Z,99685.30
2023-06-28T17:12:28.423Z,99689.58
2023-06-28T17:13:30.768Z,99684.60
2023-06-28T17:14:33.200Z,99689.95
2023-06-28T17:15:37.342Z,99691.98
2023-06-28T17:16:39.616Z,99692.41
2023-06-28T17:17:42.089Z,99700.08
2023-06-28T17:18:44.548Z,99691.06
2023-06-28T17:19:47.030Z,99695.58
2023-06-28T17:20:51.117Z,99690.89
2023-06-28T17:21:53.443Z,99692.75
2023-06-28T17:22:55.897Z,99695.00
2023-06-28T17:23:58.430Z,99693.28
2023-06-28T17:25:00.923Z,99689.42
2023-06-28T17:26:03.451Z,99691.88
2023-06-28T17:27:07.596Z,99691.44
2023-06-28T17:28:09.980Z,99689.04
2023-06-28T17:29:12.479Z,99686.68
2023-06-28T17:30:16.639Z,99685.14
2023-06-28T17:31:19.050Z,99686.59
2023-06-28T17:32:23.220Z,99681.98
2023-06-28T17:33:25.864Z,99682.77
2023-06-28T17:34:28.348Z,99688.84
2023-06-28T17:35:30.843Z,99687.91
2023-06-28T17:36:34.880Z,99693.42
2023-06-28T17:37:37.281Z,99689.09
2023-06-28T17:38:41.352Z,99692.23
2023-06-28T17:39:43.707Z,99693.33
2023-06-28T17:40:46.329Z,99697.80
2023-06-28T17:41:48.678Z,99695.78
2023-06-28T17:42:51.122Z,99692.95
2023-06-28T17:43:55.219Z,99696.42
2023-06-28T17:44:57.552Z,99691.68
2023-06-28T17:46:00.057Z,99692.59
2023-06-28T17:47:04.163Z,99693.49
2023-06-28T17:48:08.111Z,99691.91
2023-06-28T17:49:10.411Z,99689.33
2023-06-28T17:50:12.851Z,99688.39
2023-06-28T17:51:15.388Z,99691.70
2023-06-28T17:52:19.482Z,99687.27
2023-06-28T17:53:21.822Z,99691.88
2023-06-28T17:54:24.280Z,99691.88
2023-06-28T17:55:28.331Z,99695.31
2023-06-28T17:56:30.661Z,99692.94
2023-06-28T17:57:33.114Z,99698.27
2023-06-28T17:58:35.568Z,99696.08
2023-06-28T17:59:38.088Z,99697.19
2023-06-28T18:00:40.662Z,99694.20
2023-06-28T18:01:44.677Z,99696.36
2023-06-28T18:02:47.075Z,99695.08
2023-06-28T18:03:49.503Z,99693.36
2023-06-28T18:04:52.057Z,99695.72
2023-06-28T18:05:56.123Z,99697.42
2023-06-28T18:06:58.463Z,99696.11
2023-06-28T18:08:00.930Z,99698.34
2023-06-28T18:09:03.401Z,99701.00
2023-06-28T18:10:05.881Z,99697.39
2023-06-28T18:11:08.366Z,99698.09
2023-06-28T18:12:12.429Z,99697.41
2023-06-28T18:13:16.384Z,99695.69
2023-06-28T18:14:18.746Z,99697.50
2023-06-28T18:15:21.226Z,99696.13
2023-06-28T18:16:23.739Z,99697.31
2023-06-28T18:17:26.256Z,99699.38
2023-06-28T18:18:30.363Z,99700.73
2023-06-28T18:19:32.758Z,99696.01
2023-06-28T18:20:36.896Z,99699.72
2023-06-28T18:21:40.899Z,99700.66
2023-06-28T18:22:45.095Z,99699.98
2023-06-28T18:23:47.192Z,99695.42
2023-06-28T18:24:49.614Z,99699.27
2023-06-28T18:25:53.747Z,99700.57
2023-06-28T18:26:57.723Z,99700.64
2023-06-28T18:28:00.086Z,99700.13
2023-06-28T18:29:02.554Z,99701.23
2023-06-28T18:30:05.056Z,99700.39
2023-06-28T18:31:09.184Z,99702.86
2023-06-28T18:32:13.055Z,99706.30
2023-06-28T18:33:17.050Z,99701.84
2023-06-28T18:34:20.950Z,99702.10
2023-06-28T18:35:25.008Z,99704.50
2023-06-28T18:36:27.304Z,99705.42
2023-06-28T18:37:31.403Z,99702.66
2023-06-28T18:38:35.307Z,99704.11
2023-06-28T18:39:37.647Z,99705.64
2023-06-28T18:40:41.951Z,99704.19